sensor_id;sensor_type;location;lat;lon;timestamp;temperature;humidity
76759;DHT22;65701;45.588;5.186;2023-12-20T06:50:18;4.75;82.13
76759;DHT22;65701;45.588;5.186;2023-12-20T06:52:44;4.76;82.16
76759;DHT22;65701;45.588;5.186;2023-12-20T06:55:10;4.75;82.14
76759;DHT22;65701;45.588;5.186;2023-12-20T06:57:35;4.76;82.15
76759;DHT22;65701;45.588;5.186;2023-12-20T07:00:02;4.77;82.14
76759;DHT22;65701;45.588;5.186;2023-12-20T07:02:28;4.77;82.16
76759;DHT22;65701;45.588;5.186;2023-12-20T07:04:55;4.79;82.13
76759;DHT22;65701;45.588;5.186;2023-12-20T07:07:21;4.77;82.10
76759;DHT22;65701;45.588;5.186;2023-12-20T07:09:48;4.80;82.13
76759;DHT22;65701;45.588;5.186;2023-12-20T07:12:14;4.84;82.13
76759;DHT22;65701;45.588;5.186;2023-12-20T07:14:39;4.89;82.19
76759;DHT22;65701;45.588;5.186;2023-12-20T07:17:05;4.93;82.19
76759;DHT22;65701;45.588;5.186;2023-12-20T07:19:32;4.93;82.18
76759;DHT22;65701;45.588;5.186;2023-12-20T07:21:57;4.99;82.12
76759;DHT22;65701;45.588;5.186;2023-12-20T07:24:23;5.00;82.12
76759;DHT22;65701;45.588;5.186;2023-12-20T07:26:48;5.03;82.06
76759;DHT22;65701;45.588;5.186;2023-12-20T07:29:14;5.06;82.05
76759;DHT22;65701;45.588;5.186;2023-12-20T07:31:39;5.04;82.01
76759;DHT22;65701;45.588;5.186;2023-12-20T07:34:05;5.06;82.00
76759;DHT22;65701;45.588;5.186;2023-12-20T07:36:30;5.07;82.01
76759;DHT22;65701;45.588;5.186;2023-12-20T07:38:56;5.08;82.00
76759;DHT22;65701;45.588;5.186;2023-12-20T07:41:21;5.07;81.98
76759;DHT22;65701;45.588;5.186;2023-12-20T07:43:48;5.07;82.04
76759;DHT22;65701;45.588;5.186;2023-12-20T07:46:14;5.11;82.11
76759;DHT22;65701;45.588;5.186;2023-12-20T07:48:40;5.13;82.20
76759;DHT22;65701;45.588;5.186;2023-12-20T07:51:06;5.13;82.31
76759;DHT22;65701;45.588;5.186;2023-12-20T07:53:33;5.16;82.33
76759;DHT22;65701;45.588;5.186;2023-12-20T07:55:58;5.14;82.42
76759;DHT22;65701;45.588;5.186;2023-12-20T07:58:24;5.14;82.54
76759;DHT22;65701;45.588;5.186;2023-12-20T08:00:49;5.14;82.81
76759;DHT22;65701;45.588;5.186;2023-12-20T08:03:15;5.16;82.80
76759;DHT22;65701;45.588;5.186;2023-12-20T08:05:40;5.18;82.82
76759;DHT22;65701;45.588;5.186;2023-12-20T08:08:06;5.18;82.91
76759;DHT22;65701;45.588;5.186;2023-12-20T08:10:32;5.24;83.01
76759;DHT22;65701;45.588;5.186;2023-12-20T08:12:57;5.23;83.09
76759;DHT22;65701;45.588;5.186;2023-12-20T08:15:23;5.27;83.01
76759;DHT22;65701;45.588;5.186;2023-12-20T08:17:49;5.30;83.02
76759;DHT22;65701;45.588;5.186;2023-12-20T08:20:16;5.31;83.24
76759;DHT22;65701;45.588;5.186;2023-12-20T08:22:42;5.30;83.08
76759;DHT22;65701;45.588;5.186;2023-12-20T08:25:08;5.28;83.08
76759;DHT22;65701;45.588;5.186;2023-12-20T08:27:36;5.28;83.50
76759;DHT22;65701;45.588;5.186;2023-12-20T08:30:01;5.27;83.75
76759;DHT22;65701;45.588;5.186;2023-12-20T08:32:27;5.28;83.91
76759;DHT22;65701;45.588;5.186;2023-12-20T08:34:52;5.25;84.11
76759;DHT22;65701;45.588;5.186;2023-12-20T08:37:18;5.23;84.59
76759;DHT22;65701;45.588;5.186;2023-12-20T08:39:43;5.25;84.88
76759;DHT22;65701;45.588;5.186;2023-12-20T08:42:09;5.28;85.08
76759;DHT22;65701;45.588;5.186;2023-12-20T08:44:35;5.30;85.05
76759;DHT22;65701;45.588;5.186;2023-12-20T08:47:00;5.30;85.25
76759;DHT22;65701;45.588;5.186;2023-12-20T08:49:26;5.31;85.61
76759;DHT22;65701;45.588;5.186;2023-12-20T08:51:53;5.34;85.62
76759;DHT22;65701;45.588;5.186;2023-12-20T08:54:18;5.36;85.65
76759;DHT22;65701;45.588;5.186;2023-12-20T08:56:45;5.36;85.78
76759;DHT22;65701;45.588;5.186;2023-12-20T08:59:11;5.41;85.73
76759;DHT22;65701;45.588;5.186;2023-12-20T09:01:37;5.42;85.76
76759;DHT22;65701;45.588;5.186;2023-12-20T09:04:02;5.46;85.62
76759;DHT22;65701;45.588;5.186;2023-12-20T09:06:28;5.46;85.51
76759;DHT22;65701;45.588;5.186;2023-12-20T09:08:53;5.51;85.45
76759;DHT22;65701;45.588;5.186;2023-12-20T09:11:19;5.48;85.58
76759;DHT22;65701;45.588;5.186;2023-12-20T09:13:44;5.52;85.56
76759;DHT22;65701;45.588;5.186;2023-12-20T09:16:10;5.54;85.59
76759;DHT22;65701;45.588;5.186;2023-12-20T09:18:35;5.54;85.67
76759;DHT22;65701;45.588;5.186;2023-12-20T09:21:01;5.56;85.50
76759;DHT22;65701;45.588;5.186;2023-12-20T09:23:27;5.59;85.48
76759;DHT22;65701;45.588;5.186;2023-12-20T09:25:53;5.62;85.61
76759;DHT22;65701;45.588;5.186;2023-12-20T09:28:18;5.69;85.64
76759;DHT22;65701;45.588;5.186;2023-12-20T09:30:44;5.63;85.72
76759;DHT22;65701;45.588;5.186;2023-12-20T09:33:11;5.69;85.67
76759;DHT22;65701;45.588;5.186;2023-12-20T09:35:37;5.72;85.58
76759;DHT22;65701;45.588;5.186;2023-12-20T09:38:02;5.73;85.53
76759;DHT22;65701;45.588;5.186;2023-12-20T09:40:28;5.76;85.44
76759;DHT22;65701;45.588;5.186;2023-12-20T09:42:58;5.80;85.44
76759;DHT22;65701;45.588;5.186;2023-12-20T09:45:24;5.79;85.34
76759;DHT22;65701;45.588;5.186;2023-12-20T09:47:53;5.86;85.18
76759;DHT22;65701;45.588;5.186;2023-12-20T09:50:22;5.89;85.06
76759;DHT22;65701;45.588;5.186;2023-12-20T09:52:51;5.97;85.07
76759;DHT22;65701;45.588;5.186;2023-12-20T09:55:17;5.99;85.12
76759;DHT22;65701;45.588;5.186;2023-12-20T09:57:44;6.01;84.97
76759;DHT22;65701;45.588;5.186;2023-12-20T10:00:10;6.07;85.26
76759;DHT22;65701;45.588;5.186;2023-12-20T10:02:38;6.16;85.05
76759;DHT22;65701;45.588;5.186;2023-12-20T10:05:07;6.16;85.01
76759;DHT22;65701;45.588;5.186;2023-12-20T10:07:35;6.20;84.81
76759;DHT22;65701;45.588;5.186;2023-12-20T10:10:01;6.22;84.98
76759;DHT22;65701;45.588;5.186;2023-12-20T10:12:27;6.28;84.87
76759;DHT22;65701;45.588;5.186;2023-12-20T10:14:53;6.29;84.86
76759;DHT22;65701;45.588;5.186;2023-12-20T10:17:18;6.32;85.04
76759;DHT22;65701;45.588;5.186;2023-12-20T10:19:44;6.38;85.16
76759;DHT22;65701;45.588;5.186;2023-12-20T10:22:10;6.41;84.97
76759;DHT22;65701;45.588;5.186;2023-12-20T10:24:35;6.46;84.99
76759;DHT22;65701;45.588;5.186;2023-12-20T10:27:05;6.48;84.83
76759;DHT22;65701;45.588;5.186;2023-12-20T10:29:37;6.46;84.77
76759;DHT22;65701;45.588;5.186;2023-12-20T10:32:26;6.52;84.74
76759;DHT22;65701;45.588;5.186;2023-12-20T10:34:53;6.53;84.81
76759;DHT22;65701;45.588;5.186;2023-12-20T10:37:19;6.57;84.76
76759;DHT22;65701;45.588;5.186;2023-12-20T10:39:50;6.59;84.84
76759;DHT22;65701;45.588;5.186;2023-12-20T10:42:18;6.57;84.77
76759;DHT22;65701;45.588;5.186;2023-12-20T10:44:46;6.65;85.00
76759;DHT22;65701;45.588;5.186;2023-12-20T10:47:13;6.66;85.06
76759;DHT22;65701;45.588;5.186;2023-12-20T10:49:39;6.68;84.97
76759;DHT22;65701;45.588;5.186;2023-12-20T10:52:06;6.68;84.93
76759;DHT22;65701;45.588;5.186;2023-12-20T10:54:32;6.71;85.10
76759;DHT22;65701;45.588;5.186;2023-12-20T10:56:58;6.73;85.30
76759;DHT22;65701;45.588;5.186;2023-12-20T10:59:24;6.76;85.24
76759;DHT22;65701;45.588;5.186;2023-12-20T11:01:50;6.80;85.16
76759;DHT22;65701;45.588;5.186;2023-12-20T11:04:33;6.82;85.32
76759;DHT22;65701;45.588;5.186;2023-12-20T11:07:16;6.83;85.43
76759;DHT22;65701;45.588;5.186;2023-12-20T11:09:54;6.89;85.54
76759;DHT22;65701;45.588;5.186;2023-12-20T11:12:35;6.86;85.72
76759;DHT22;65701;45.588;5.186;2023-12-20T11:15:03;6.86;85.86
76759;DHT22;65701;45.588;5.186;2023-12-20T11:17:29;6.94;85.93
76759;DHT22;65701;45.588;5.186;2023-12-20T11:22:24;6.96;85.87
76759;DHT22;65701;45.588;5.186;2023-12-20T11:24:50;6.96;85.87
76759;DHT22;65701;45.588;5.186;2023-12-20T11:27:15;7.05;86.02
76759;DHT22;65701;45.588;5.186;2023-12-20T11:29:41;7.08;85.98
76759;DHT22;65701;45.588;5.186;2023-12-20T11:37:34;7.17;85.58
76759;DHT22;65701;45.588;5.186;2023-12-20T11:40:20;7.20;85.49
76759;DHT22;65701;45.588;5.186;2023-12-20T11:42:49;7.24;85.53
76759;DHT22;65701;45.588;5.186;2023-12-20T11:45:16;7.29;85.43
76759;DHT22;65701;45.588;5.186;2023-12-20T11:47:46;7.34;85.34
76759;DHT22;65701;45.588;5.186;2023-12-20T11:50:12;7.39;85.06
76759;DHT22;65701;45.588;5.186;2023-12-20T11:52:38;7.41;84.86
76759;DHT22;65701;45.588;5.186;2023-12-20T11:55:03;7.42;84.96
76759;DHT22;65701;45.588;5.186;2023-12-20T11:57:30;7.48;84.69
76759;DHT22;65701;45.588;5.186;2023-12-20T11:59:56;7.54;84.43
76759;DHT22;65701;45.588;5.186;2023-12-20T12:02:21;7.67;84.45
76759;DHT22;65701;45.588;5.186;2023-12-20T12:04:50;7.69;84.16
76759;DHT22;65701;45.588;5.186;2023-12-20T12:07:18;7.72;83.25
76759;DHT22;65701;45.588;5.186;2023-12-20T12:09:45;7.76;82.71
76759;DHT22;65701;45.588;5.186;2023-12-20T12:12:12;7.80;82.74
76759;DHT22;65701;45.588;5.186;2023-12-20T12:14:38;7.82;82.36
76759;DHT22;65701;45.588;5.186;2023-12-20T12:17:10;7.93;82.46
76759;DHT22;65701;45.588;5.186;2023-12-20T12:19:36;7.94;82.19
76759;DHT22;65701;45.588;5.186;2023-12-20T12:22:10;8.03;81.82
76759;DHT22;65701;45.588;5.186;2023-12-20T12:24:44;8.03;81.30
76759;DHT22;65701;45.588;5.186;2023-12-20T12:27:11;8.00;80.94
76759;DHT22;65701;45.588;5.186;2023-12-20T12:29:37;7.97;80.63
76759;DHT22;65701;45.588;5.186;2023-12-20T12:32:11;7.95;80.60
76759;DHT22;65701;45.588;5.186;2023-12-20T12:34:37;7.94;80.24
76759;DHT22;65701;45.588;5.186;2023-12-20T12:37:06;7.90;80.37
76759;DHT22;65701;45.588;5.186;2023-12-20T12:39:31;7.91;80.21
76759;DHT22;65701;45.588;5.186;2023-12-20T12:41:57;7.93;80.56
76759;DHT22;65701;45.588;5.186;2023-12-20T12:44:23;7.95;80.53
76759;DHT22;65701;45.588;5.186;2023-12-20T12:46:52;8.04;80.27
76759;DHT22;65701;45.588;5.186;2023-12-20T12:49:19;7.94;79.86
76759;DHT22;65701;45.588;5.186;2023-12-20T12:51:46;7.94;79.61
76759;DHT22;65701;45.588;5.186;2023-12-20T12:54:12;7.84;79.38
76759;DHT22;65701;45.588;5.186;2023-12-20T12:56:39;7.86;79.28
76759;DHT22;65701;45.588;5.186;2023-12-20T12:59:04;7.80;79.20
76759;DHT22;65701;45.588;5.186;2023-12-20T13:01:31;7.79;78.69
76759;DHT22;65701;45.588;5.186;2023-12-20T13:03:56;7.73;78.57
76759;DHT22;65701;45.588;5.186;2023-12-20T13:06:22;7.63;78.53
76759;DHT22;65701;45.588;5.186;2023-12-20T13:08:48;7.72;78.68
76759;DHT22;65701;45.588;5.186;2023-12-20T13:11:13;7.70;78.65
76759;DHT22;65701;45.588;5.186;2023-12-20T13:13:39;7.67;78.80
76759;DHT22;65701;45.588;5.186;2023-12-20T13:16:04;7.65;78.77
76759;DHT22;65701;45.588;5.186;2023-12-20T13:18:30;7.62;78.76
76759;DHT22;65701;45.588;5.186;2023-12-20T13:20:55;7.58;78.76
76759;DHT22;65701;45.588;5.186;2023-12-20T13:23:21;7.65;78.89
76759;DHT22;65701;45.588;5.186;2023-12-20T13:25:46;7.61;78.79
76759;DHT22;65701;45.588;5.186;2023-12-20T13:28:12;7.63;78.80
76759;DHT22;65701;45.588;5.186;2023-12-20T13:30:38;7.65;78.90
76759;DHT22;65701;45.588;5.186;2023-12-20T13:33:04;7.70;79.03
76759;DHT22;65701;45.588;5.186;2023-12-20T13:35:30;7.72;79.10
76759;DHT22;65701;45.588;5.186;2023-12-20T13:37:57;7.73;79.09
76759;DHT22;65701;45.588;5.186;2023-12-20T13:40:23;7.70;78.95
76759;DHT22;65701;45.588;5.186;2023-12-20T13:42:48;7.72;78.62
76759;DHT22;65701;45.588;5.186;2023-12-20T13:45:14;7.73;78.49
76759;DHT22;65701;45.588;5.186;2023-12-20T13:47:39;7.65;78.43
76759;DHT22;65701;45.588;5.186;2023-12-20T13:50:05;7.70;78.42
76759;DHT22;65701;45.588;5.186;2023-12-20T13:52:31;7.70;78.59
76759;DHT22;65701;45.588;5.186;2023-12-20T13:54:56;7.69;78.61
76759;DHT22;65701;45.588;5.186;2023-12-20T13:57:22;7.63;78.75
76759;DHT22;65701;45.588;5.186;2023-12-20T13:59:47;7.63;78.95
76759;DHT22;65701;45.588;5.186;2023-12-20T14:02:13;7.59;79.04
76759;DHT22;65701;45.588;5.186;2023-12-20T14:04:39;7.55;79.07
76759;DHT22;65701;45.588;5.186;2023-12-20T14:07:05;7.55;79.09
76759;DHT22;65701;45.588;5.186;2023-12-20T14:09:30;7.58;79.24
76759;DHT22;65701;45.588;5.186;2023-12-20T14:11:56;7.61;79.36
76759;DHT22;65701;45.588;5.186;2023-12-20T14:14:21;7.59;79.28
76759;DHT22;65701;45.588;5.186;2023-12-20T14:16:47;7.59;79.19
76759;DHT22;65701;45.588;5.186;2023-12-20T14:19:12;7.59;79.21
76759;DHT22;65701;45.588;5.186;2023-12-20T14:21:38;7.62;79.11
76759;DHT22;65701;45.588;5.186;2023-12-20T14:24:03;7.63;78.96
76759;DHT22;65701;45.588;5.186;2023-12-20T14:26:30;7.61;78.77
76759;DHT22;65701;45.588;5.186;2023-12-20T14:28:57;7.62;78.68
76759;DHT22;65701;45.588;5.186;2023-12-20T14:31:26;7.56;78.42
76759;DHT22;65701;45.588;5.186;2023-12-20T14:33:55;7.46;77.85
76759;DHT22;65701;45.588;5.186;2023-12-20T14:36:21;7.48;77.33
76759;DHT22;65701;45.588;5.186;2023-12-20T14:38:47;7.46;77.44
76759;DHT22;65701;45.588;5.186;2023-12-20T14:41:12;7.45;77.50
76759;DHT22;65701;45.588;5.186;2023-12-20T14:43:38;7.45;77.48
76759;DHT22;65701;45.588;5.186;2023-12-20T14:46:03;7.44;77.59
76759;DHT22;65701;45.588;5.186;2023-12-20T14:48:30;7.42;77.66
76759;DHT22;65701;45.588;5.186;2023-12-20T14:50:57;7.42;77.67
76759;DHT22;65701;45.588;5.186;2023-12-20T14:53:24;7.36;77.81
76759;DHT22;65701;45.588;5.186;2023-12-20T14:55:50;7.34;77.60
76759;DHT22;65701;45.588;5.186;2023-12-20T14:58:16;7.35;77.65
76759;DHT22;65701;45.588;5.186;2023-12-20T15:00:44;7.35;77.86
76759;DHT22;65701;45.588;5.186;2023-12-20T15:03:10;7.38;77.98
76759;DHT22;65701;45.588;5.186;2023-12-20T15:05:35;7.34;77.98
76759;DHT22;65701;45.588;5.186;2023-12-20T15:08:02;7.35;78.01
76759;DHT22;65701;45.588;5.186;2023-12-20T15:10:28;7.39;77.99
76759;DHT22;65701;45.588;5.186;2023-12-20T15:12:55;7.35;77.99
76759;DHT22;65701;45.588;5.186;2023-12-20T15:15:21;7.34;77.87
76759;DHT22;65701;45.588;5.186;2023-12-20T15:17:47;7.34;77.91
76759;DHT22;65701;45.588;5.186;2023-12-20T15:20:12;7.35;78.03
76759;DHT22;65701;45.588;5.186;2023-12-20T15:22:39;7.34;78.12
76759;DHT22;65701;45.588;5.186;2023-12-20T15:25:08;7.31;78.13
76759;DHT22;65701;45.588;5.186;2023-12-20T15:27:35;7.34;78.17
76759;DHT22;65701;45.588;5.186;2023-12-20T15:30:05;7.28;78.21
76759;DHT22;65701;45.588;5.186;2023-12-20T15:32:34;7.27;78.14
76759;DHT22;65701;45.588;5.186;2023-12-20T15:35:01;7.25;78.14
76759;DHT22;65701;45.588;5.186;2023-12-20T15:37:27;7.21;77.98
76759;DHT22;65701;45.588;5.186;2023-12-20T15:39:53;7.17;77.98
76759;DHT22;65701;45.588;5.186;2023-12-20T15:42:18;7.17;78.04
76759;DHT22;65701;45.588;5.186;2023-12-20T15:44:44;7.14;78.04
76759;DHT22;65701;45.588;5.186;2023-12-20T15:47:10;7.07;78.03
76759;DHT22;65701;45.588;5.186;2023-12-20T15:49:35;7.08;78.07
76759;DHT22;65701;45.588;5.186;2023-12-20T15:52:01;7.05;78.24
76759;DHT22;65701;45.588;5.186;2023-12-20T15:54:26;7.03;78.27
76759;DHT22;65701;45.588;5.186;2023-12-20T15:56:52;7.01;78.29
76759;DHT22;65701;45.588;5.186;2023-12-20T15:59:18;7.00;78.34
76759;DHT22;65701;45.588;5.186;2023-12-20T16:01:43;7.00;78.36
76759;DHT22;65701;45.588;5.186;2023-12-20T16:04:10;7.01;78.34
76759;DHT22;65701;45.588;5.186;2023-12-20T16:06:35;6.96;78.22
76759;DHT22;65701;45.588;5.186;2023-12-20T16:09:02;6.96;78.31
76759;DHT22;65701;45.588;5.186;2023-12-20T16:11:28;6.94;78.26
76759;DHT22;65701;45.588;5.186;2023-12-20T16:13:54;6.86;77.98
76759;DHT22;65701;45.588;5.186;2023-12-20T16:16:20;6.87;78.00
76759;DHT22;65701;45.588;5.186;2023-12-20T16:18:45;6.84;78.17
76759;DHT22;65701;45.588;5.186;2023-12-20T16:21:11;6.84;78.22
76759;DHT22;65701;45.588;5.186;2023-12-20T16:23:37;6.79;78.15
76759;DHT22;65701;45.588;5.186;2023-12-20T16:26:02;6.75;78.14
76759;DHT22;65701;45.588;5.186;2023-12-20T16:28:28;6.69;78.09
76759;DHT22;65701;45.588;5.186;2023-12-20T16:30:53;6.61;78.11
76759;DHT22;65701;45.588;5.186;2023-12-20T16:33:21;6.59;78.23
76759;DHT22;65701;45.588;5.186;2023-12-20T16:35:46;6.57;78.26
76759;DHT22;65701;45.588;5.186;2023-12-20T16:38:12;6.57;78.34
76759;DHT22;65701;45.588;5.186;2023-12-20T16:40:37;6.55;78.44
76759;DHT22;65701;45.588;5.186;2023-12-20T16:43:03;6.55;78.53
76759;DHT22;65701;45.588;5.186;2023-12-20T16:45:29;6.55;78.55
76759;DHT22;65701;45.588;5.186;2023-12-20T16:47:54;6.49;78.45
76759;DHT22;65701;45.588;5.186;2023-12-20T16:50:20;6.44;78.37
76759;DHT22;65701;45.588;5.186;2023-12-20T16:52:46;6.35;78.36
76759;DHT22;65701;45.588;5.186;2023-12-20T16:55:16;6.25;78.41
76759;DHT22;65701;45.588;5.186;2023-12-20T16:57:42;6.22;78.55
76759;DHT22;65701;45.588;5.186;2023-12-20T17:00:08;6.21;78.70
76759;DHT22;65701;45.588;5.186;2023-12-20T17:02:33;6.21;78.88
76759;DHT22;65701;45.588;5.186;2023-12-20T17:04:59;6.21;79.01
76759;DHT22;65701;45.588;5.186;2023-12-20T17:07:24;6.24;79.11
76759;DHT22;65701;45.588;5.186;2023-12-20T17:09:50;6.28;79.17
76759;DHT22;65701;45.588;5.186;2023-12-20T17:12:16;6.28;79.30
76759;DHT22;65701;45.588;5.186;2023-12-20T17:14:42;6.29;79.42
76759;DHT22;65701;45.588;5.186;2023-12-20T17:17:08;6.31;79.54
76759;DHT22;65701;45.588;5.186;2023-12-20T17:19:34;6.28;79.58
76759;DHT22;65701;45.588;5.186;2023-12-20T17:22:00;6.31;79.58
76759;DHT22;65701;45.588;5.186;2023-12-20T17:24:28;6.32;79.67
76759;DHT22;65701;45.588;5.186;2023-12-20T17:26:53;6.34;79.67
76759;DHT22;65701;45.588;5.186;2023-12-20T17:29:19;6.32;79.68
76759;DHT22;65701;45.588;5.186;2023-12-20T17:31:44;6.37;79.66
76759;DHT22;65701;45.588;5.186;2023-12-20T17:34:10;6.37;79.67
76759;DHT22;65701;45.588;5.186;2023-12-20T17:36:40;6.39;79.71
76759;DHT22;65701;45.588;5.186;2023-12-20T17:39:06;6.44;79.66
76759;DHT22;65701;45.588;5.186;2023-12-20T17:41:31;6.44;79.63
76759;DHT22;65701;45.588;5.186;2023-12-20T17:44:03;6.45;79.55
76759;DHT22;65701;45.588;5.186;2023-12-20T17:46:29;6.42;79.47
76759;DHT22;65701;45.588;5.186;2023-12-20T17:48:54;6.42;79.39
76759;DHT22;65701;45.588;5.186;2023-12-20T17:51:21;6.38;79.32
76759;DHT22;65701;45.588;5.186;2023-12-20T17:53:47;6.38;79.31
76759;DHT22;65701;45.588;5.186;2023-12-20T17:56:12;6.37;79.33
76759;DHT22;65701;45.588;5.186;2023-12-20T17:58:38;6.34;79.31
76759;DHT22;65701;45.588;5.186;2023-12-20T18:01:03;6.32;79.28
76759;DHT22;65701;45.588;5.186;2023-12-20T18:03:29;6.35;79.28
76759;DHT22;65701;45.588;5.186;2023-12-20T18:05:55;6.29;79.27
76759;DHT22;65701;45.588;5.186;2023-12-20T18:08:20;6.32;79.28
76759;DHT22;65701;45.588;5.186;2023-12-20T18:10:46;6.31;79.26
76759;DHT22;65701;45.588;5.186;2023-12-20T18:13:11;6.27;79.23
76759;DHT22;65701;45.588;5.186;2023-12-20T18:15:37;6.25;79.20
76759;DHT22;65701;45.588;5.186;2023-12-20T18:18:02;6.24;79.19
76759;DHT22;65701;45.588;5.186;2023-12-20T18:20:28;6.25;79.17
76759;DHT22;65701;45.588;5.186;2023-12-20T18:22:54;6.22;79.11
76759;DHT22;65701;45.588;5.186;2023-12-20T18:25:20;6.20;79.15
76759;DHT22;65701;45.588;5.186;2023-12-20T18:27:45;6.18;79.12
76759;DHT22;65701;45.588;5.186;2023-12-20T18:30:11;6.17;79.00
76759;DHT22;65701;45.588;5.186;2023-12-20T18:32:37;6.10;78.92
76759;DHT22;65701;45.588;5.186;2023-12-20T18:35:02;6.10;78.91
76759;DHT22;65701;45.588;5.186;2023-12-20T18:37:28;6.06;78.82
76759;DHT22;65701;45.588;5.186;2023-12-20T18:39:54;6.01;78.76
76759;DHT22;65701;45.588;5.186;2023-12-20T18:42:21;5.91;78.64
76759;DHT22;65701;45.588;5.186;2023-12-20T18:44:47;5.82;78.52
76759;DHT22;65701;45.588;5.186;2023-12-20T18:47:12;5.74;78.56
76759;DHT22;65701;45.588;5.186;2023-12-20T18:49:38;5.67;78.64
76759;DHT22;65701;45.588;5.186;2023-12-20T18:52:04;5.63;78.72
76759;DHT22;65701;45.588;5.186;2023-12-20T18:54:31;5.65;78.84
76759;DHT22;65701;45.588;5.186;2023-12-20T18:56:57;5.66;78.95
76759;DHT22;65701;45.588;5.186;2023-12-20T18:59:22;5.62;79.04
76759;DHT22;65701;45.588;5.186;2023-12-20T19:01:49;5.67;79.08
76759;DHT22;65701;45.588;5.186;2023-12-20T19:04:15;5.62;79.16
76759;DHT22;65701;45.588;5.186;2023-12-20T19:06:41;5.62;79.20
76759;DHT22;65701;45.588;5.186;2023-12-20T19:09:07;5.62;79.17
76759;DHT22;65701;45.588;5.186;2023-12-20T19:11:32;5.60;79.10
76759;DHT22;65701;45.588;5.186;2023-12-20T19:13:59;5.55;79.03
76759;DHT22;65701;45.588;5.186;2023-12-20T19:16:24;5.44;78.84
76759;DHT22;65701;45.588;5.186;2023-12-20T19:18:50;5.39;78.84
76759;DHT22;65701;45.588;5.186;2023-12-20T19:21:15;5.35;78.84
76759;DHT22;65701;45.588;5.186;2023-12-20T19:23:42;5.28;78.82
76759;DHT22;65701;45.588;5.186;2023-12-20T19:26:11;5.24;78.85
76759;DHT22;65701;45.588;5.186;2023-12-20T19:28:40;5.23;78.90
76759;DHT22;65701;45.588;5.186;2023-12-20T19:31:06;5.21;79.01
76759;DHT22;65701;45.588;5.186;2023-12-20T19:33:38;5.21;79.08
76759;DHT22;65701;45.588;5.186;2023-12-20T19:36:10;5.24;79.18
76759;DHT22;65701;45.588;5.186;2023-12-20T19:38:36;5.20;79.20
76759;DHT22;65701;45.588;5.186;2023-12-20T19:41:03;5.18;79.18
76759;DHT22;65701;45.588;5.186;2023-12-20T19:43:28;5.17;79.11
76759;DHT22;65701;45.588;5.186;2023-12-20T19:45:54;5.11;78.97
76759;DHT22;65701;45.588;5.186;2023-12-20T19:48:20;5.07;78.90
76759;DHT22;65701;45.588;5.186;2023-12-20T19:50:45;5.01;78.91
76759;DHT22;65701;45.588;5.186;2023-12-20T19:53:13;5.00;78.93
76759;DHT22;65701;45.588;5.186;2023-12-20T19:55:38;4.97;78.99
76759;DHT22;65701;45.588;5.186;2023-12-20T19:58:04;4.96;78.99
76759;DHT22;65701;45.588;5.186;2023-12-20T20:00:29;4.96;79.03
76759;DHT22;65701;45.588;5.186;2023-12-20T20:02:55;4.94;79.03
76759;DHT22;65701;45.588;5.186;2023-12-20T20:05:21;4.91;79.04
76759;DHT22;65701;45.588;5.186;2023-12-20T20:07:47;4.89;79.06
76759;DHT22;65701;45.588;5.186;2023-12-20T20:10:12;4.87;79.06
76759;DHT22;65701;45.588;5.186;2023-12-20T20:12:38;4.84;79.05
76759;DHT22;65701;45.588;5.186;2023-12-20T20:15:04;4.80;78.97
76759;DHT22;65701;45.588;5.186;2023-12-20T20:17:30;4.75;78.84
76759;DHT22;65701;45.588;5.186;2023-12-20T20:19:55;4.68;78.84
76759;DHT22;65701;45.588;5.186;2023-12-20T20:22:21;4.62;78.89
76759;DHT22;65701;45.588;5.186;2023-12-20T20:24:46;4.62;78.94
76759;DHT22;65701;45.588;5.186;2023-12-20T20:27:12;4.63;79.02
76759;DHT22;65701;45.588;5.186;2023-12-20T20:29:38;4.63;79.12
76759;DHT22;65701;45.588;5.186;2023-12-20T20:32:05;4.66;79.18
76759;DHT22;65701;45.588;5.186;2023-12-20T20:34:30;4.68;79.26
76759;DHT22;65701;45.588;5.186;2023-12-20T20:36:56;4.66;79.31
76759;DHT22;65701;45.588;5.186;2023-12-20T20:39:22;4.66;79.36
76759;DHT22;65701;45.588;5.186;2023-12-20T20:41:48;4.68;79.36
76759;DHT22;65701;45.588;5.186;2023-12-20T20:44:14;4.68;79.39
76759;DHT22;65701;45.588;5.186;2023-12-20T20:46:39;4.70;79.39
76759;DHT22;65701;45.588;5.186;2023-12-20T20:49:05;4.69;79.44
76759;DHT22;65701;45.588;5.186;2023-12-20T20:51:31;4.72;79.50
76759;DHT22;65701;45.588;5.186;2023-12-20T20:53:56;4.73;79.51
76759;DHT22;65701;45.588;5.186;2023-12-20T20:56:22;4.73;79.56
76759;DHT22;65701;45.588;5.186;2023-12-20T21:01:23;4.75;79.67
76759;DHT22;65701;45.588;5.186;2023-12-20T21:03:49;4.77;79.75
76759;DHT22;65701;45.588;5.186;2023-12-20T21:06:14;4.77;79.77
76759;DHT22;65701;45.588;5.186;2023-12-20T21:08:40;4.76;79.77
76759;DHT22;65701;45.588;5.186;2023-12-20T21:11:05;4.75;79.79
76759;DHT22;65701;45.588;5.186;2023-12-20T21:13:31;4.75;79.82
76759;DHT22;65701;45.588;5.186;2023-12-20T21:15:57;4.73;79.81
76759;DHT22;65701;45.588;5.186;2023-12-20T21:18:22;4.72;79.82
76759;DHT22;65701;45.588;5.186;2023-12-20T21:20:48;4.72;79.81
76759;DHT22;65701;45.588;5.186;2023-12-20T21:23:15;4.69;79.83
